createdAt,value
2022-07-29T00:01:44.734Z,59.55
2022-07-29T00:04:11.643Z,59.84
2022-07-29T00:06:38.211Z,59.96
2022-07-29T00:09:04.653Z,59.77
2022-07-29T00:11:31.270Z,60.42
2022-07-29T00:13:57.979Z,59.88
2022-07-29T00:16:24.388Z,60.36
2022-07-29T00:18:50.814Z,60.39
2022-07-29T00:21:17.195Z,61.43
2022-07-29T00:23:43.581Z,61.70
2022-07-29T00:26:10.018Z,61.82
2022-07-29T00:28:36.512Z,61.10
2022-07-29T00:31:03.036Z,60.83
2022-07-29T00:33:30.095Z,61.22
2022-07-29T00:35:56.650Z,61.44
2022-07-29T00:38:23.787Z,61.70
2022-07-29T00:40:52.320Z,61.89
2022-07-29T00:43:18.783Z,61.71
2022-07-29T00:45:45.648Z,61.31
2022-07-29T00:48:12.130Z,61.23
2022-07-29T00:50:39.334Z,61.10
2022-07-29T00:53:07.658Z,60.58
2022-07-29T00:55:34.277Z,60.65
2022-07-29T00:58:01.089Z,60.88
2022-07-29T01:00:29.506Z,61.12
2022-07-29T01:02:56.392Z,61.62
2022-07-29T01:05:49.967Z,62.35
2022-07-29T01:08:15.065Z,62.66
2022-07-29T01:10:42.863Z,62.50
2022-07-29T01:13:10.123Z,62.75
2022-07-29T01:15:49.514Z,62.54
2022-07-29T01:18:28.217Z,62.70
2022-07-29T01:21:22.775Z,62.00
2022-07-29T01:23:54.987Z,62.14
2022-07-29T01:27:05.439Z,61.88
2022-07-29T01:29:42.248Z,61.84
2022-07-29T01:32:28.760Z,61.92
2022-07-29T01:35:02.822Z,62.08
2022-07-29T01:37:48.109Z,62.18
2022-07-29T01:40:47.485Z,62.04
2022-07-29T01:43:17.534Z,62.46
2022-07-29T01:46:15.882Z,62.75
2022-07-29T01:48:54.796Z,62.99
2022-07-29T01:52:05.027Z,64.12
2022-07-29T01:54:44.037Z,64.47
2022-07-29T01:57:18.382Z,66.24
2022-07-29T01:59:47.366Z,66.07
2022-07-29T02:02:16.220Z,66.09
2022-07-29T02:04:46.297Z,65.86
2022-07-29T02:07:16.674Z,66.14
2022-07-29T02:09:44.996Z,65.55
2022-07-29T02:12:12.686Z,65.61
2022-07-29T02:14:44.615Z,65.82
2022-07-29T02:17:13.229Z,65.47
2022-07-29T02:19:41.862Z,65.67
2022-07-29T02:22:11.035Z,66.69
2022-07-29T02:24:41.003Z,66.73
2022-07-29T02:27:09.242Z,67.31
2022-07-29T02:29:37.986Z,66.75
2022-07-29T02:32:06.190Z,66.65
2022-07-29T02:34:34.505Z,66.72
2022-07-29T02:37:01.078Z,66.44
2022-07-29T02:39:30.204Z,66.02
2022-07-29T02:42:02.615Z,65.98
2022-07-29T02:44:34.241Z,65.40
2022-07-29T02:47:23.108Z,64.89
2022-07-29T02:50:09.281Z,65.31
2022-07-29T02:52:40.921Z,65.20
2022-07-29T02:55:10.438Z,64.99
2022-07-29T02:57:54.773Z,65.89
2022-07-29T03:00:25.411Z,67.37
2022-07-29T03:02:55.790Z,69.14
2022-07-29T03:05:23.488Z,73.01
2022-07-29T03:07:59.536Z,75.95
2022-07-29T03:10:29.306Z,79.22
2022-07-29T03:12:56.696Z,82.18
2022-07-29T03:15:24.107Z,83.06
2022-07-29T03:17:52.589Z,85.52
2022-07-29T03:20:19.491Z,88.08
2022-07-29T03:22:49.277Z,90.99
2022-07-29T03:25:18.389Z,92.79
2022-07-29T03:27:45.652Z,93.17
2022-07-29T03:30:21.576Z,91.82
2022-07-29T03:32:49.598Z,91.77
2022-07-29T03:35:20.149Z,92.28
2022-07-29T03:37:47.108Z,94.15
2022-07-29T03:40:18.266Z,94.10
2022-07-29T03:42:46.645Z,94.76
2022-07-29T03:45:16.279Z,96.23
2022-07-29T03:47:50.635Z,92.45
2022-07-29T03:50:20.370Z,89.94
2022-07-29T03:52:47.821Z,90.23
2022-07-29T03:55:15.700Z,91.46
2022-07-29T03:57:43.401Z,91.44
2022-07-29T04:00:10.231Z,91.63
2022-07-29T04:02:38.763Z,92.45
2022-07-29T04:05:05.628Z,91.79
2022-07-29T04:07:32.025Z,92.65
2022-07-29T04:09:58.433Z,94.88
2022-07-29T04:12:25.668Z,96.32
2022-07-29T04:14:52.109Z,96.62
2022-07-29T04:17:18.539Z,97.69
2022-07-29T04:19:44.916Z,98.47
2022-07-29T04:22:11.379Z,98.01
2022-07-29T04:24:37.779Z,98.09
2022-07-29T04:27:04.293Z,98.87
2022-07-29T04:29:30.670Z,97.73
2022-07-29T04:31:57.099Z,96.45
2022-07-29T04:34:23.691Z,96.33
2022-07-29T04:36:54.738Z,95.85
2022-07-29T04:39:23.222Z,95.98
2022-07-29T04:41:51.138Z,95.90
2022-07-29T04:44:19.675Z,96.72
2022-07-29T04:46:46.404Z,97.56
2022-07-29T04:49:12.973Z,99.14
2022-07-29T04:51:39.594Z,98.80
2022-07-29T04:54:07.021Z,97.69
2022-07-29T04:56:33.466Z,97.95
2022-07-29T04:58:59.820Z,98.16
2022-07-29T05:01:26.337Z,97.72
2022-07-29T05:03:57.024Z,97.67
2022-07-29T05:06:26.475Z,97.53
2022-07-29T05:08:52.840Z,96.99
2022-07-29T05:11:21.782Z,97.18
2022-07-29T05:13:48.980Z,95.74
2022-07-29T05:16:15.486Z,94.65
2022-07-29T05:18:43.045Z,94.78
2022-07-29T05:21:09.500Z,91.90
2022-07-29T05:23:35.876Z,91.46
2022-07-29T05:26:02.586Z,91.89
2022-07-29T05:28:29.103Z,91.06
2022-07-29T05:30:55.557Z,89.88
2022-07-29T05:33:35.865Z,89.52
2022-07-29T05:36:07.898Z,90.11
2022-07-29T05:38:36.403Z,88.96
2022-07-29T05:41:03.271Z,87.28
2022-07-29T05:43:29.834Z,88.81
2022-07-29T05:45:56.539Z,87.21
2022-07-29T05:48:23.820Z,86.18
2022-07-29T05:50:50.273Z,85.86
2022-07-29T05:53:19.954Z,83.81
2022-07-29T05:55:48.084Z,83.17
2022-07-29T05:58:14.541Z,82.52
2022-07-29T06:00:41.067Z,81.46
2022-07-29T06:03:07.536Z,80.09
2022-07-29T06:05:34.162Z,79.44
2022-07-29T06:08:00.636Z,80.50
2022-07-29T06:10:27.863Z,80.35
2022-07-29T06:12:54.635Z,80.00
2022-07-29T06:15:21.397Z,80.88
2022-07-29T06:17:59.774Z,81.00
2022-07-29T06:20:31.528Z,81.58
2022-07-29T06:22:58.646Z,81.73
2022-07-29T06:25:26.485Z,83.18
2022-07-29T06:27:53.247Z,83.43
2022-07-29T06:30:19.722Z,85.20
2022-07-29T06:32:46.143Z,86.58
2022-07-29T06:35:41.783Z,87.71
2022-07-29T06:37:59.783Z,87.23
2022-07-29T06:40:45.357Z,87.86
2022-07-29T06:43:11.873Z,87.91
2022-07-29T06:45:42.130Z,87.75
2022-07-29T06:48:08.869Z,88.15
2022-07-29T06:50:35.525Z,90.33
2022-07-29T06:53:02.161Z,90.19
2022-07-29T06:55:28.571Z,90.53
2022-07-29T06:57:54.971Z,91.82
2022-07-29T07:00:21.501Z,91.20
2022-07-29T07:02:48.062Z,92.84
2022-07-29T07:05:14.598Z,93.76
2022-07-29T07:07:41.151Z,97.15
2022-07-29T07:10:08.043Z,100.00
2022-07-29T07:12:34.579Z,100.00
2022-07-29T07:15:01.029Z,100.00
2022-07-29T07:17:27.455Z,100.00
2022-07-29T07:19:54.019Z,100.00
2022-07-29T07:22:20.400Z,100.00
2022-07-29T07:24:46.774Z,100.00
2022-07-29T07:27:13.340Z,100.00
2022-07-29T07:29:42.006Z,100.00
2022-07-29T07:32:10.673Z,100.00
2022-07-29T07:34:38.704Z,100.00
2022-07-29T07:37:05.372Z,100.00
2022-07-29T07:39:31.796Z,100.00
2022-07-29T07:41:58.206Z,100.00
2022-07-29T07:44:24.670Z,100.00
2022-07-29T07:46:51.046Z,100.00
2022-07-29T07:49:17.523Z,100.00
2022-07-29T07:51:44.004Z,100.00
2022-07-29T07:54:17.766Z,100.00
2022-07-29T07:56:44.458Z,100.00
2022-07-29T07:59:10.839Z,100.00
2022-07-29T08:01:48.457Z,100.00
2022-07-29T08:04:27.753Z,100.00
2022-07-29T08:06:55.956Z,100.00
2022-07-29T08:09:29.199Z,100.00
2022-07-29T08:11:57.844Z,100.00
2022-07-29T08:14:24.495Z,100.00
2022-07-29T08:16:51.848Z,100.00
2022-07-29T08:19:18.293Z,100.00
2022-07-29T08:21:44.740Z,100.00
2022-07-29T08:24:29.840Z,100.00
2022-07-29T08:26:56.328Z,100.00
2022-07-29T08:29:22.825Z,100.00
2022-07-29T08:31:49.293Z,100.00
2022-07-29T08:34:15.747Z,100.00
2022-07-29T08:36:42.234Z,100.00
2022-07-29T08:39:08.658Z,100.00
2022-07-29T08:41:36.280Z,100.00
2022-07-29T08:44:02.768Z,100.00
2022-07-29T08:46:29.238Z,100.00
2022-07-29T08:48:56.591Z,100.00
2022-07-29T08:51:25.147Z,100.00
2022-07-29T08:53:51.887Z,100.00
2022-07-29T08:56:20.577Z,100.00
2022-07-29T08:58:50.736Z,100.00
2022-07-29T09:01:36.245Z,100.00
2022-07-29T09:04:12.369Z,100.00
2022-07-29T09:06:44.013Z,99.29
2022-07-29T09:09:10.570Z,96.25
2022-07-29T09:11:37.610Z,94.69
2022-07-29T09:14:04.066Z,96.30
2022-07-29T09:16:53.475Z,96.90
2022-07-29T09:19:32.298Z,98.21
2022-07-29T09:22:00.464Z,99.73
2022-07-29T09:24:35.527Z,100.00
2022-07-29T09:27:03.058Z,100.00
2022-07-29T09:29:32.166Z,100.00
2022-07-29T09:32:08.619Z,100.00
2022-07-29T09:34:35.038Z,100.00
2022-07-29T09:37:01.499Z,100.00
2022-07-29T09:39:31.762Z,100.00
2022-07-29T09:42:00.529Z,100.00
2022-07-29T09:44:27.586Z,100.00
2022-07-29T09:47:08.738Z,100.00
2022-07-29T09:49:37.039Z,100.00
2022-07-29T09:52:09.866Z,100.00
2022-07-29T09:54:40.282Z,100.00
2022-07-29T09:57:27.252Z,100.00
2022-07-29T09:59:57.670Z,96.79
2022-07-29T10:02:28.808Z,95.00
2022-07-29T10:04:55.547Z,92.13
2022-07-29T10:07:22.247Z,91.11
2022-07-29T10:09:56.828Z,89.49
2022-07-29T10:12:24.077Z,89.48
2022-07-29T10:14:51.145Z,89.18
2022-07-29T10:17:19.090Z,89.53
2022-07-29T10:19:46.069Z,88.11
2022-07-29T10:22:12.533Z,86.50
2022-07-29T10:24:39.536Z,86.42
2022-07-29T10:27:08.906Z,83.97
2022-07-29T10:29:36.667Z,84.81
2022-07-29T10:32:17.669Z,83.80
2022-07-29T10:34:50.125Z,82.95
2022-07-29T10:37:28.473Z,83.78
2022-07-29T10:40:28.764Z,82.07
2022-07-29T10:42:56.781Z,82.30
2022-07-29T10:45:24.811Z,82.29
2022-07-29T10:48:03.919Z,81.40
2022-07-29T10:51:00.890Z,78.64
2022-07-29T10:53:51.282Z,77.28
2022-07-29T10:56:29.002Z,73.69
2022-07-29T10:59:27.066Z,72.07
2022-07-29T11:04:51.884Z,68.65
2022-07-29T11:07:18.317Z,67.69
2022-07-29T11:09:46.409Z,59.75
2022-07-29T11:12:39.279Z,60.86
2022-07-29T11:15:09.045Z,58.83
2022-07-29T11:17:59.635Z,58.16
2022-07-29T11:20:45.554Z,56.23
2022-07-29T11:23:40.216Z,57.96
2022-07-29T11:26:13.484Z,56.13
2022-07-29T11:29:18.915Z,55.28
2022-07-29T11:31:49.329Z,52.17
2022-07-29T11:34:33.121Z,55.05
2022-07-29T11:37:10.195Z,53.27
2022-07-29T11:39:41.459Z,53.59
2022-07-29T11:42:32.458Z,52.56
2022-07-29T11:45:09.259Z,51.07
2022-07-29T11:47:56.015Z,50.54
2022-07-29T11:50:34.635Z,50.25
2022-07-29T11:53:02.987Z,50.69
2022-07-29T11:55:38.481Z,50.93
2022-07-29T11:58:24.809Z,51.79
2022-07-29T12:00:52.718Z,49.10
2022-07-29T12:03:35.400Z,51.46
2022-07-29T12:06:12.252Z,47.90
2022-07-29T12:08:44.515Z,49.43
2022-07-29T12:11:21.256Z,49.48
2022-07-29T12:13:49.612Z,50.37
2022-07-29T12:16:16.624Z,51.04
2022-07-29T12:19:00.513Z,50.16
2022-07-29T12:21:29.222Z,50.90
2022-07-29T12:24:01.780Z,51.61
2022-07-29T12:26:32.095Z,54.43
2022-07-29T12:29:02.313Z,56.01
2022-07-29T12:31:44.169Z,57.05
2022-07-29T12:34:13.435Z,56.67
2022-07-29T12:36:41.320Z,56.16
2022-07-29T12:39:08.076Z,57.45
2022-07-29T12:41:34.519Z,53.48
2022-07-29T12:44:00.992Z,53.37
2022-07-29T12:46:27.655Z,53.01
2022-07-29T12:48:55.796Z,52.33
2022-07-29T12:51:39.328Z,50.61
2022-07-29T12:54:16.203Z,50.36
2022-07-29T12:56:45.290Z,49.58
2022-07-29T12:59:20.518Z,49.20
2022-07-29T13:01:50.058Z,49.73
2022-07-29T13:04:55.399Z,49.33
2022-07-29T13:07:54.310Z,49.33
2022-07-29T13:10:18.309Z,50.89
2022-07-29T13:13:09.713Z,49.65
2022-07-29T13:15:38.397Z,47.60
2022-07-29T13:18:05.327Z,46.30
2022-07-29T13:20:32.744Z,46.70
2022-07-29T13:23:00.973Z,47.76
2022-07-29T13:25:30.520Z,47.37
2022-07-29T13:27:57.307Z,47.90
2022-07-29T13:30:25.003Z,48.03
2022-07-29T13:32:52.814Z,49.87
2022-07-29T13:35:21.172Z,47.94
2022-07-29T13:37:47.704Z,47.77
2022-07-29T13:40:14.968Z,49.93
2022-07-29T13:42:42.004Z,47.84
2022-07-29T13:45:09.337Z,48.94
2022-07-29T13:47:36.137Z,48.57
2022-07-29T13:50:03.834Z,48.50
2022-07-29T13:52:32.560Z,48.60
2022-07-29T13:54:59.185Z,47.97
2022-07-29T13:57:25.587Z,47.85
2022-07-29T13:59:54.289Z,48.73
2022-07-29T14:02:21.712Z,48.33
2022-07-29T14:04:52.794Z,48.35
2022-07-29T14:07:19.283Z,48.58
2022-07-29T14:09:45.690Z,49.50
2022-07-29T14:12:12.792Z,47.01
2022-07-29T14:14:39.246Z,48.49
2022-07-29T14:17:07.395Z,49.76
2022-07-29T14:19:36.544Z,47.53
2022-07-29T14:22:05.251Z,46.47
2022-07-29T14:24:32.355Z,46.62
2022-07-29T14:26:59.347Z,45.98
2022-07-29T14:29:37.668Z,47.60
2022-07-29T14:32:06.596Z,46.56
2022-07-29T14:34:34.293Z,46.68
2022-07-29T14:37:00.665Z,46.60
2022-07-29T14:39:27.049Z,47.35
2022-07-29T14:41:59.130Z,47.14
2022-07-29T14:44:31.727Z,48.76
2022-07-29T14:47:00.334Z,46.73
2022-07-29T14:49:28.036Z,45.14
2022-07-29T14:51:54.718Z,46.72
2022-07-29T14:54:21.201Z,46.78
2022-07-29T14:56:50.142Z,44.96
2022-07-29T14:59:16.818Z,45.71
2022-07-29T15:01:43.932Z,44.15
2022-07-29T15:04:10.429Z,44.49
2022-07-29T15:06:37.473Z,43.96
2022-07-29T15:09:03.942Z,41.14
2022-07-29T15:11:30.407Z,43.08
2022-07-29T15:14:03.432Z,41.90
2022-07-29T15:16:29.891Z,42.59
2022-07-29T15:18:58.587Z,42.61
2022-07-29T15:21:27.842Z,42.01
2022-07-29T15:23:54.433Z,42.88
2022-07-29T15:26:21.052Z,42.56
2022-07-29T15:28:47.520Z,42.75
2022-07-29T15:31:14.056Z,42.76
2022-07-29T15:33:40.730Z,42.67
2022-07-29T15:36:07.325Z,41.09
2022-07-29T15:38:33.876Z,42.16
2022-07-29T15:41:00.338Z,42.08
2022-07-29T15:43:26.895Z,42.04
2022-07-29T15:46:12.278Z,42.17
2022-07-29T15:48:40.173Z,41.68
2022-07-29T15:51:06.721Z,40.32
2022-07-29T15:53:33.778Z,40.54
2022-07-29T15:56:02.081Z,40.98
2022-07-29T15:58:28.446Z,40.28
2022-07-29T16:00:54.863Z,41.31
2022-07-29T16:03:22.857Z,42.09
2022-07-29T16:05:51.680Z,42.75
2022-07-29T16:08:18.581Z,42.30
2022-07-29T16:10:44.963Z,42.99
2022-07-29T16:13:11.503Z,43.44
2022-07-29T16:15:43.678Z,43.80
2022-07-29T16:18:10.157Z,43.93
2022-07-29T16:20:37.217Z,44.65
2022-07-29T16:23:03.651Z,44.12
2022-07-29T16:25:57.347Z,44.64
2022-07-29T16:28:17.178Z,44.58
2022-07-29T16:30:43.657Z,44.57
2022-07-29T16:33:10.019Z,45.98
2022-07-29T16:35:40.174Z,46.29
2022-07-29T16:38:06.760Z,47.12
2022-07-29T16:40:33.188Z,47.82
2022-07-29T16:42:59.685Z,48.29
2022-07-29T16:45:26.535Z,48.56
2022-07-29T16:48:00.995Z,48.60
2022-07-29T16:50:28.920Z,48.47
2022-07-29T16:52:56.009Z,49.07
2022-07-29T16:55:22.993Z,49.38
2022-07-29T16:57:49.872Z,49.12
2022-07-29T17:00:17.391Z,49.10
2022-07-29T17:02:43.768Z,49.14
2022-07-29T17:05:11.156Z,48.74
2022-07-29T17:07:38.350Z,48.85
2022-07-29T17:10:07.924Z,49.28
2022-07-29T17:12:39.997Z,49.58
2022-07-29T17:15:09.437Z,50.32
2022-07-29T17:17:39.126Z,49.87
2022-07-29T17:20:21.766Z,50.07
2022-07-29T17:22:48.470Z,50.82
2022-07-29T17:25:20.590Z,51.47
2022-07-29T17:27:49.389Z,51.38
2022-07-29T17:30:15.854Z,51.41
2022-07-29T17:32:42.206Z,50.66
2022-07-29T17:35:29.286Z,51.55
2022-07-29T17:37:55.792Z,51.71
2022-07-29T17:40:22.554Z,51.43
2022-07-29T17:42:49.189Z,51.84
2022-07-29T17:45:15.609Z,51.39
2022-07-29T17:47:42.026Z,50.83
2022-07-29T17:50:08.740Z,50.83
2022-07-29T17:52:35.631Z,51.64
2022-07-29T17:55:02.548Z,52.41
2022-07-29T17:57:29.093Z,52.80
2022-07-29T17:59:55.486Z,53.18
2022-07-29T18:02:22.504Z,53.04
2022-07-29T18:04:51.434Z,51.68
2022-07-29T18:07:18.461Z,51.36
2022-07-29T18:09:45.210Z,52.21
2022-07-29T18:12:11.594Z,52.92
2022-07-29T18:14:38.356Z,52.50
2022-07-29T18:17:04.867Z,53.68
2022-07-29T18:19:31.295Z,53.71
2022-07-29T18:22:03.192Z,54.88
2022-07-29T18:24:31.996Z,55.04
2022-07-29T18:26:58.717Z,54.77
2022-07-29T18:29:25.336Z,55.78
2022-07-29T18:31:51.774Z,55.93
2022-07-29T18:34:18.222Z,55.90
2022-07-29T18:36:45.675Z,56.01
2022-07-29T18:39:13.117Z,56.09
2022-07-29T18:41:50.589Z,56.93
2022-07-29T18:44:18.307Z,56.63
2022-07-29T18:46:47.376Z,56.93
2022-07-29T18:49:23.054Z,57.74
2022-07-29T18:51:50.347Z,58.01
2022-07-29T18:54:17.905Z,57.86
2022-07-29T18:56:48.459Z,58.82
2022-07-29T18:59:20.523Z,58.69
2022-07-29T19:01:48.439Z,58.66
2022-07-29T19:04:16.371Z,59.51
2022-07-29T19:06:42.916Z,60.50
2022-07-29T19:09:09.800Z,61.08
2022-07-29T19:11:37.500Z,61.18
2022-07-29T19:14:05.678Z,61.21
2022-07-29T19:16:32.564Z,61.71
2022-07-29T19:19:00.801Z,61.50
2022-07-29T19:21:27.659Z,61.89
2022-07-29T19:24:01.746Z,61.47
2022-07-29T19:26:36.275Z,61.75
2022-07-29T19:29:03.632Z,62.50
2022-07-29T19:31:30.564Z,62.61
2022-07-29T19:33:56.993Z,63.69
2022-07-29T19:36:23.491Z,64.16
2022-07-29T19:38:50.019Z,65.67
2022-07-29T19:41:16.966Z,65.72
2022-07-29T19:43:50.694Z,66.13
2022-07-29T19:46:20.046Z,67.53
2022-07-29T19:48:46.540Z,68.26
2022-07-29T19:51:13.092Z,68.73
2022-07-29T19:53:39.603Z,69.43
2022-07-29T19:56:06.006Z,69.18
2022-07-29T19:58:35.573Z,68.72
2022-07-29T20:01:02.701Z,69.27
2022-07-29T20:03:36.933Z,70.42
2022-07-29T20:06:03.410Z,70.84
2022-07-29T20:08:29.871Z,72.06
2022-07-29T20:10:56.265Z,72.79
2022-07-29T20:13:22.683Z,73.90
2022-07-29T20:15:49.194Z,74.26
2022-07-29T20:18:15.985Z,74.38
2022-07-29T20:20:42.338Z,74.87
2022-07-29T20:23:08.758Z,74.76
2022-07-29T20:25:35.220Z,75.03
2022-07-29T20:28:01.618Z,75.19
2022-07-29T20:30:28.047Z,75.94
2022-07-29T20:32:55.864Z,76.73
2022-07-29T20:35:22.966Z,77.45
2022-07-29T20:37:55.976Z,77.55
2022-07-29T20:40:24.234Z,76.91
2022-07-29T20:42:50.946Z,76.43
2022-07-29T20:45:17.454Z,76.11
2022-07-29T20:47:43.820Z,76.83
2022-07-29T20:50:10.499Z,77.62
2022-07-29T20:52:37.054Z,78.11
2022-07-29T20:55:03.872Z,77.76
2022-07-29T20:57:38.895Z,77.66
2022-07-29T21:00:07.659Z,77.63
2022-07-29T21:02:34.227Z,77.77
2022-07-29T21:05:01.045Z,78.07
2022-07-29T21:07:28.052Z,79.79
2022-07-29T21:09:54.706Z,79.55
2022-07-29T21:12:21.263Z,78.58
2022-07-29T21:14:48.099Z,78.27
2022-07-29T21:17:16.231Z,78.21
2022-07-29T21:19:43.042Z,78.68
2022-07-29T21:22:09.883Z,78.57
2022-07-29T21:24:36.412Z,77.89
2022-07-29T21:27:21.987Z,78.10
2022-07-29T21:29:48.761Z,77.96
2022-07-29T21:32:27.192Z,78.52
2022-07-29T21:34:55.974Z,78.57
2022-07-29T21:37:22.434Z,78.18
2022-07-29T21:39:48.797Z,78.34
2022-07-29T21:42:15.335Z,78.28
2022-07-29T21:44:41.948Z,78.05
2022-07-29T21:47:09.536Z,78.59
2022-07-29T21:49:36.100Z,78.15
2022-07-29T21:52:04.939Z,78.08
2022-07-29T21:54:31.871Z,78.00
2022-07-29T21:56:58.544Z,78.23
2022-07-29T21:59:27.357Z,77.78
2022-07-29T22:01:53.878Z,78.20
2022-07-29T22:04:20.716Z,77.68
2022-07-29T22:06:47.168Z,77.54
2022-07-29T22:09:13.574Z,77.63
2022-07-29T22:11:40.048Z,77.58
2022-07-29T22:14:07.275Z,77.57
2022-07-29T22:16:33.820Z,77.50
2022-07-29T22:19:00.408Z,78.10
2022-07-29T22:21:27.974Z,78.37
2022-07-29T22:23:54.361Z,78.55
2022-07-29T22:26:20.827Z,79.18
2022-07-29T22:28:47.217Z,79.68
2022-07-29T22:31:13.636Z,79.83
2022-07-29T22:33:40.088Z,80.37
2022-07-29T22:36:06.805Z,81.05
2022-07-29T22:38:33.522Z,81.82
2022-07-29T22:41:00.691Z,82.10
2022-07-29T22:43:28.154Z,82.97
2022-07-29T22:45:54.830Z,83.69
2022-07-29T22:48:21.353Z,84.13
2022-07-29T22:50:47.750Z,84.86
2022-07-29T22:53:14.182Z,85.05
2022-07-29T22:55:40.614Z,86.64
2022-07-29T22:58:07.051Z,86.98
2022-07-29T23:00:33.623Z,87.65
2022-07-29T23:03:00.103Z,88.20
2022-07-29T23:05:26.763Z,90.62
2022-07-29T23:07:53.141Z,93.54
2022-07-29T23:10:20.513Z,93.51
2022-07-29T23:12:46.882Z,93.73
2022-07-29T23:15:13.320Z,96.38
2022-07-29T23:17:39.762Z,95.64
2022-07-29T23:20:07.878Z,95.54
2022-07-29T23:22:35.558Z,96.33
2022-07-29T23:25:02.165Z,96.03
2022-07-29T23:27:28.709Z,98.47
2022-07-29T23:29:55.095Z,97.61
2022-07-29T23:32:21.533Z,97.53
2022-07-29T23:34:47.925Z,97.53
2022-07-29T23:37:14.509Z,96.76
2022-07-29T23:39:40.937Z,97.50
2022-07-29T23:42:07.395Z,97.89
2022-07-29T23:44:33.882Z,97.76
2022-07-29T23:47:00.610Z,98.41
2022-07-29T23:49:27.248Z,98.76
2022-07-29T23:51:53.651Z,98.43
2022-07-29T23:54:20.164Z,97.85
2022-07-29T23:56:46.607Z,98.21
2022-07-29T23:59:13.012Z,98.31
